Time;durP1;ratioP1;P1;durP2;ratioP2;P2;SDS_P1;SDS_P2;PMS_P1;PMS_P2;Temp;Humidity;BMP_temperature;BMP_pressure;BME280_temperature;BME280_humidity;BME280_pressure;Samples;Min_cycle;Max_cycle;Signal;HPM_P1;HPM_P2
2023/05/20 00:02:01;;;;;;;23.60;6.63;;;;;;;14.37;100.00;101891.53;5120401;27;20495;-75
2023/05/20 00:04:31;;;;;;;19.25;6.18;;;;;;;14.31;100.00;101884.09;5100068;27;20085;-76
2023/05/20 00:07:00;;;;;;;25.55;6.88;;;;;;;14.30;100.00;101887.72;5122572;27;20122;-77
2023/05/20 00:09:29;;;;;;;24.63;6.68;;;;;;;14.29;100.00;101888.69;5089939;27;20027;-76
2023/05/20 00:11:57;;;;;;;23.23;6.65;;;;;;;14.19;100.00;101882.50;5124363;27;20036;-77
2023/05/20 00:14:25;;;;;;;28.33;6.82;;;;;;;14.17;100.00;101881.78;5116977;27;20024;-76
2023/05/20 00:16:53;;;;;;;30.45;6.35;;;;;;;14.10;100.00;101879.66;5122494;27;20118;-75
2023/05/20 00:19:23;;;;;;;30.15;7.05;;;;;;;14.12;100.00;101880.38;5116760;27;20110;-76
2023/05/20 00:21:53;;;;;;;24.20;7.75;;;;;;;14.10;100.00;101878.81;5128007;27;20066;-76
2023/05/20 00:24:23;;;;;;;29.67;7.38;;;;;;;14.09;100.00;101877.13;5120788;27;20149;-77
2023/05/20 00:26:52;;;;;;;26.48;7.78;;;;;;;14.07;100.00;101873.75;5123993;27;20027;-75
2023/05/20 00:29:21;;;;;;;25.80;7.25;;;;;;;14.12;100.00;101868.91;5127132;27;20616;-75
2023/05/20 00:31:49;;;;;;;26.65;6.63;;;;;;;14.17;100.00;101879.13;5106159;27;20072;-75
2023/05/20 00:34:18;;;;;;;30.15;7.32;;;;;;;14.21;100.00;101878.72;5102790;27;20046;-77
2023/05/20 00:36:48;;;;;;;19.85;6.35;;;;;;;14.18;100.00;101884.31;5101594;28;20050;-76
2023/05/20 00:39:17;;;;;;;29.42;6.93;;;;;;;14.15;100.00;101884.56;5100923;28;20480;-76
2023/05/20 00:41:45;;;;;;;34.70;7.00;;;;;;;14.14;100.00;101882.91;5112354;27;20054;-76
2023/05/20 00:44:13;;;;;;;25.90;6.70;;;;;;;14.12;100.00;101891.00;5100184;28;20035;-77
2023/05/20 00:46:41;;;;;;;26.23;7.05;;;;;;;14.09;100.00;101880.66;5100545;28;20037;-77
2023/05/20 00:49:11;;;;;;;33.75;8.55;;;;;;;14.10;100.00;101884.97;5116388;28;20031;-77
2023/05/20 00:51:40;;;;;;;22.83;6.50;;;;;;;14.09;100.00;101882.44;5121688;28;20102;-78
2023/05/20 00:54:08;;;;;;;34.08;7.30;;;;;;;14.02;100.00;101882.13;5104521;28;20043;-81
2023/05/20 00:56:37;;;;;;;27.98;7.40;;;;;;;14.04;100.00;101879.34;5102909;28;20110;-81
2023/05/20 00:59:05;;;;;;;26.92;6.80;;;;;;;14.04;100.00;101880.19;5118086;28;20063;-77
2023/05/20 01:01:33;;;;;;;25.38;7.18;;;;;;;14.02;100.00;101876.81;5118819;28;20039;-76
2023/05/20 01:04:02;;;;;;;26.90;6.70;;;;;;;13.99;100.00;101877.94;5088278;28;20409;-76
2023/05/20 01:06:32;;;;;;;23.63;6.32;;;;;;;14.04;100.00;101876.69;5120423;28;20515;-76
2023/05/20 01:09:02;;;;;;;29.67;8.15;;;;;;;14.05;100.00;101873.06;5089898;28;20043;-76
2023/05/20 01:11:41;;;;;;;24.05;6.75;;;;;;;14.07;100.00;101874.59;5114262;28;20032;-75
2023/05/20 01:14:13;;;;;;;21.55;6.57;;;;;;;14.12;100.00;101875.06;5092943;28;20404;-74
2023/05/20 01:16:42;;;;;;;26.48;6.78;;;;;;;14.14;100.00;101873.09;5120799;28;20449;-76
2023/05/20 01:19:27;;;;;;;28.60;7.25;;;;;;;14.18;100.00;101871.03;5120170;27;20392;-71
2023/05/20 01:22:00;;;;;;;26.52;7.82;;;;;;;14.16;100.00;101872.97;5113732;27;20035;-80
2023/05/20 01:24:29;;;;;;;22.02;6.70;;;;;;;14.17;100.00;101877.31;5103356;27;20108;-81
2023/05/20 01:27:02;;;;;;;20.67;6.40;;;;;;;14.18;100.00;101870.16;5118206;27;20388;-76
2023/05/20 01:29:32;;;;;;;25.17;7.20;;;;;;;14.19;100.00;101870.03;5088773;27;20035;-76
2023/05/20 01:32:03;;;;;;;26.65;7.20;;;;;;;14.17;100.00;101876.47;5127740;27;20023;-74
2023/05/20 01:34:35;;;;;;;33.53;8.73;;;;;;;14.16;100.00;101861.50;5126295;27;20054;-73
2023/05/20 01:37:06;;;;;;;27.92;7.97;;;;;;;14.14;100.00;101859.78;5130353;27;20031;-73
2023/05/20 01:39:42;;;;;;;24.67;7.40;;;;;;;14.09;100.00;101858.53;5109324;27;20027;-72
2023/05/20 01:42:15;;;;;;;35.70;7.47;;;;;;;14.04;100.00;101861.59;5111149;27;20431;-73
2023/05/20 01:44:44;;;;;;;25.30;7.43;;;;;;;14.02;100.00;101851.09;5124230;27;20035;-73
2023/05/20 01:47:14;;;;;;;27.30;7.72;;;;;;;14.07;100.00;101852.50;5105022;27;20085;-74
2023/05/20 01:49:45;;;;;;;24.63;6.82;;;;;;;14.09;100.00;101846.09;5122072;27;20061;-74
2023/05/20 01:52:13;;;;;;;31.67;8.23;;;;;;;14.09;100.00;101854.06;5120652;27;20062;-74
2023/05/20 01:54:40;;;;;;;23.48;6.82;;;;;;;14.14;100.00;101843.84;5095885;27;20032;-74
2023/05/20 01:57:08;;;;;;;30.90;7.40;;;;;;;14.16;100.00;101845.53;5110490;27;20764;-74
2023/05/20 01:59:36;;;;;;;25.95;7.65;;;;;;;14.19;100.00;101851.41;5128359;27;20099;-74
2023/05/20 02:02:04;;;;;;;21.58;7.43;;;;;;;14.20;100.00;101846.94;5122494;27;20027;-74
2023/05/20 02:04:34;;;;;;;27.13;8.13;;;;;;;14.26;100.00;101849.06;5123491;27;20039;-74
2023/05/20 02:07:04;;;;;;;28.55;7.82;;;;;;;14.30;100.00;101847.81;5120515;27;20031;-72
2023/05/20 02:09:34;;;;;;;25.52;7.45;;;;;;;14.35;100.00;101848.25;5114619;27;20092;-72
2023/05/20 02:12:04;;;;;;;17.92;6.75;;;;;;;14.38;100.00;101836.53;5093497;27;20685;-74
2023/05/20 02:14:35;;;;;;;23.17;6.45;;;;;;;14.41;100.00;101838.06;5102956;27;20027;-74
2023/05/20 02:17:04;;;;;;;18.85;6.68;;;;;;;14.39;100.00;101841.72;5128787;27;20099;-72
2023/05/20 02:19:31;;;;;;;20.08;6.70;;;;;;;14.36;100.00;101835.81;5107412;27;20055;-72
2023/05/20 02:21:59;;;;;;;21.98;6.03;;;;;;;14.37;100.00;101830.38;5125542;27;20023;-73
2023/05/20 02:24:27;;;;;;;29.08;7.80;;;;;;;14.32;100.00;101821.09;5113175;27;20114;-72
2023/05/20 02:26:56;;;;;;;15.85;6.20;;;;;;;14.33;100.00;101825.44;5125420;27;20038;-74
2023/05/20 02:29:23;;;;;;;20.75;6.35;;;;;;;14.30;100.00;101823.06;5127488;27;20066;-74
2023/05/20 02:31:53;;;;;;;23.23;7.15;;;;;;;14.31;100.00;101819.41;5126210;27;20110;-72
2023/05/20 02:34:24;;;;;;;23.27;6.97;;;;;;;14.31;100.00;101824.72;5128522;27;20042;-72
2023/05/20 02:36:55;;;;;;;23.05;7.75;;;;;;;14.27;100.00;101821.50;5126515;27;20031;-74
2023/05/20 02:39:24;;;;;;;23.67;7.78;;;;;;;14.26;100.00;101812.69;5123560;27;20034;-74
2023/05/20 02:41:51;;;;;;;24.98;7.47;;;;;;;14.26;100.00;101814.50;5100130;27;20064;-74
2023/05/20 02:44:20;;;;;;;17.52;6.63;;;;;;;14.27;100.00;101806.38;5116906;27;20026;-74
2023/05/20 02:46:48;;;;;;;24.35;7.70;;;;;;;14.30;100.00;101807.94;5115716;27;20035;-74
2023/05/20 02:49:16;;;;;;;18.23;6.68;;;;;;;14.31;100.00;101806.97;5140917;27;20032;-72
2023/05/20 02:51:44;;;;;;;20.40;7.18;;;;;;;14.29;100.00;101802.75;5111135;27;20035;-72
2023/05/20 02:54:11;;;;;;;24.38;7.38;;;;;;;14.30;100.00;101793.81;5112851;27;20042;-72
2023/05/20 02:56:39;;;;;;;22.30;6.82;;;;;;;14.25;100.00;101803.00;5116546;27;20023;-72
2023/05/20 02:59:07;;;;;;;22.27;6.88;;;;;;;14.26;100.00;101795.88;5097764;28;20039;-72
2023/05/20 03:01:35;;;;;;;22.05;7.53;;;;;;;14.23;100.00;101793.50;5114603;27;20055;-73
2023/05/20 03:04:03;;;;;;;22.52;7.55;;;;;;;14.24;100.00;101798.69;5119453;27;20397;-70
2023/05/20 03:06:31;;;;;;;18.17;6.35;;;;;;;14.23;100.00;101797.00;5105189;27;20039;-73
2023/05/20 03:09:01;;;;;;;18.48;6.10;;;;;;;14.27;100.00;101794.91;5121827;27;20031;-73
2023/05/20 03:11:31;;;;;;;15.73;5.82;;;;;;;14.22;100.00;101797.16;5122757;27;20031;-73
2023/05/20 03:14:01;;;;;;;19.15;6.65;;;;;;;14.22;100.00;101797.97;5118382;27;20023;-73
2023/05/20 03:16:34;;;;;;;25.27;7.70;;;;;;;14.25;100.00;101799.53;5109763;27;20047;-73
2023/05/20 03:19:03;;;;;;;16.75;6.40;;;;;;;14.26;100.00;101794.09;5126872;27;20173;-73
2023/05/20 03:21:33;;;;;;;20.40;6.40;;;;;;;14.26;100.00;101790.56;5127990;27;20030;-73
2023/05/20 03:24:03;;;;;;;22.98;6.85;;;;;;;14.25;100.00;101781.75;5112639;27;20038;-74
2023/05/20 03:26:36;;;;;;;23.25;6.80;;;;;;;14.24;100.00;101784.53;5130492;27;20026;-75
2023/05/20 03:29:06;;;;;;;16.05;6.25;;;;;;;14.20;100.00;101786.66;5112145;27;20027;-73
2023/05/20 03:31:36;;;;;;;16.83;6.28;;;;;;;14.17;100.00;101788.72;5116014;27;20103;-73
2023/05/20 03:34:07;;;;;;;19.08;6.38;;;;;;;14.15;100.00;101780.88;5110317;27;20039;-73
2023/05/20 03:36:37;;;;;;;20.85;6.45;;;;;;;14.11;100.00;101782.97;5118882;27;20050;-73
2023/05/20 03:39:07;;;;;;;20.90;6.10;;;;;;;14.07;100.00;101781.56;5122948;27;20480;-73
2023/05/20 03:41:37;;;;;;;21.23;6.60;;;;;;;14.08;100.00;101782.41;5121115;27;20035;-73
2023/05/20 03:44:07;;;;;;;17.08;6.32;;;;;;;14.09;100.00;101784.94;5128642;27;20034;-75
2023/05/20 03:46:37;;;;;;;19.08;6.53;;;;;;;14.11;100.00;101784.81;5121405;27;20037;-75
2023/05/20 03:49:07;;;;;;;18.77;6.53;;;;;;;14.12;100.00;101774.03;5119035;27;20038;-75
2023/05/20 03:51:35;;;;;;;18.15;6.90;;;;;;;14.10;100.00;101780.44;5125489;27;20031;-75
2023/05/20 03:54:08;;;;;;;17.45;6.82;;;;;;;14.05;100.00;101772.88;5111949;27;20039;-74
2023/05/20 03:56:38;;;;;;;21.95;6.47;;;;;;;14.02;100.00;101771.31;5102326;28;20047;-73
2023/05/20 03:59:07;;;;;;;19.98;6.13;;;;;;;14.01;100.00;101771.47;5117335;27;20054;-72
2023/05/20 04:01:36;;;;;;;20.65;6.28;;;;;;;14.00;100.00;101777.75;5107910;28;20517;-72
2023/05/20 04:08:24;;;;;;;15.27;6.03;;;;;;;13.93;100.00;101765.97;5119114;27;20107;-72
2023/05/20 04:10:56;;;;;;;16.83;5.72;;;;;;;13.92;100.00;101769.63;5123435;27;20079;-73
2023/05/20 04:13:26;;;;;;;22.10;6.32;;;;;;;13.86;100.00;101766.50;5113927;27;20444;-74
2023/05/20 04:15:55;;;;;;;18.42;6.57;;;;;;;13.85;100.00;101767.50;5104562;27;20030;-74
2023/05/20 04:18:23;;;;;;;21.63;6.45;;;;;;;13.86;100.00;101770.97;5120152;27;20032;-73
2023/05/20 04:21:00;;;;;;;15.68;6.93;;;;;;;13.87;100.00;101767.34;5136238;27;20108;-73
2023/05/20 04:23:30;;;;;;;14.90;5.80;;;;;;;13.85;100.00;101769.28;5120832;27;20021;-73
2023/05/20 04:26:01;;;;;;;18.27;6.35;;;;;;;13.87;100.00;101767.34;5126938;27;20108;-72
2023/05/20 04:28:32;;;;;;;15.40;6.30;;;;;;;13.87;100.00;101770.00;5096062;28;20023;-74
2023/05/20 04:31:05;;;;;;;20.17;6.47;;;;;;;13.89;100.00;101770.69;5089605;28;20031;-74
2023/05/20 04:33:37;;;;;;;13.47;5.60;;;;;;;13.88;100.00;101763.72;5118506;27;20035;-72
2023/05/20 04:36:14;;;;;;;12.50;5.35;;;;;;;13.89;100.00;101754.75;5102585;27;20464;-72
2023/05/20 04:38:43;;;;;;;17.83;6.35;;;;;;;13.89;100.00;101754.75;5124807;27;20027;-72
2023/05/20 04:41:11;;;;;;;13.32;5.72;;;;;;;13.88;100.00;101753.94;5103972;28;20023;-72
2023/05/20 04:43:42;;;;;;;18.70;5.93;;;;;;;13.89;100.00;101752.94;5093172;28;20031;-74
2023/05/20 04:46:11;;;;;;;15.80;5.65;;;;;;;13.89;100.00;101754.75;5104504;28;20526;-73
2023/05/20 04:48:39;;;;;;;15.85;6.18;;;;;;;13.84;100.00;101755.16;5108272;28;20063;-74
2023/05/20 04:51:07;;;;;;;18.17;7.05;;;;;;;13.85;100.00;101756.88;5102030;28;20043;-73
2023/05/20 04:53:35;;;;;;;17.65;6.18;;;;;;;13.82;100.00;101754.47;5107536;27;20034;-74
2023/05/20 04:56:04;;;;;;;14.57;6.43;;;;;;;13.84;100.00;101757.00;5108907;27;20121;-73
2023/05/20 04:58:32;;;;;;;18.95;6.65;;;;;;;13.83;100.00;101763.25;5119003;27;20039;-74
2023/05/20 05:01:01;;;;;;;19.52;6.57;;;;;;;13.85;100.00;101748.88;5118820;27;20028;-73
2023/05/20 05:03:29;;;;;;;15.50;5.85;;;;;;;13.84;100.00;101749.03;5112297;27;20514;-72
2023/05/20 05:05:58;;;;;;;20.13;6.40;;;;;;;13.86;100.00;101747.91;5132231;27;20080;-72
2023/05/20 05:08:26;;;;;;;15.30;6.45;;;;;;;13.77;100.00;101749.56;5105745;27;20611;-72
2023/05/20 05:10:54;;;;;;;20.05;6.90;;;;;;;13.70;100.00;101748.38;5131311;27;20781;-73
2023/05/20 05:13:22;;;;;;;17.85;6.85;;;;;;;13.63;100.00;101750.72;5098235;27;20369;-72
2023/05/20 05:15:59;;;;;;;18.05;7.22;;;;;;;13.66;100.00;101746.97;5102303;28;20066;-73
2023/05/20 05:18:31;;;;;;;13.32;6.07;;;;;;;13.66;100.00;101749.63;5122526;27;20440;-72
2023/05/20 05:21:05;;;;;;;19.60;6.70;;;;;;;13.70;100.00;101753.69;5113673;27;20102;-72
2023/05/20 05:23:36;;;;;;;15.65;6.50;;;;;;;13.74;100.00;101752.44;5130251;27;20423;-73
2023/05/20 05:26:06;;;;;;;17.73;5.90;;;;;;;13.77;100.00;101759.34;5095509;28;20047;-73
2023/05/20 05:28:35;;;;;;;12.68;5.97;;;;;;;13.77;100.00;101762.00;5104291;27;20040;-72
2023/05/20 05:31:03;;;;;;;15.82;6.50;;;;;;;13.73;100.00;101764.06;5115090;27;20081;-72
2023/05/20 05:33:31;;;;;;;20.35;8.00;;;;;;;13.71;100.00;101765.19;5132783;27;20058;-73
2023/05/20 05:36:01;;;;;;;21.67;8.18;;;;;;;13.66;100.00;101762.94;5126309;27;20111;-74
2023/05/20 05:38:31;;;;;;;16.83;6.35;;;;;;;13.68;100.00;101768.09;5110171;27;20162;-72
2023/05/20 05:41:01;;;;;;;8.05;4.43;;;;;;;13.70;100.00;101753.69;5141965;27;20503;-72
2023/05/20 05:43:30;;;;;;;13.07;5.43;;;;;;;13.71;100.00;101759.88;5126668;27;20110;-74
2023/05/20 05:45:59;;;;;;;16.98;6.50;;;;;;;13.72;100.00;101762.41;5129934;27;20023;-73
2023/05/20 05:48:27;;;;;;;15.40;5.80;;;;;;;13.71;100.00;101760.69;5109072;27;20420;-73
2023/05/20 05:50:55;;;;;;;15.25;6.70;;;;;;;13.71;100.00;101757.22;5128225;27;20095;-73
2023/05/20 05:53:24;;;;;;;21.35;8.40;;;;;;;13.75;100.00;101759.47;5129213;27;20027;-72
2023/05/20 05:55:52;;;;;;;23.67;6.90;;;;;;;13.71;100.00;101763.34;5130377;27;20480;-72
2023/05/20 05:58:20;;;;;;;27.10;8.52;;;;;;;13.71;100.00;101762.53;5106267;27;20493;-72
2023/05/20 06:00:51;;;;;;;22.70;8.38;;;;;;;13.71;100.00;101768.66;5117789;27;20435;-72
2023/05/20 06:03:21;;;;;;;21.55;8.02;;;;;;;13.66;100.00;101770.03;5129475;27;20027;-71
2023/05/20 06:05:52;;;;;;;19.75;7.82;;;;;;;13.60;100.00;101760.78;5123746;27;20112;-73
2023/05/20 06:08:22;;;;;;;23.52;7.72;;;;;;;13.57;100.00;101758.41;5124885;27;20020;-74
2023/05/20 06:10:52;;;;;;;26.15;7.57;;;;;;;13.59;100.00;101767.91;5135697;27;20114;-74
2023/05/20 06:13:23;;;;;;;22.45;8.35;;;;;;;13.59;100.00;101757.28;5124918;27;20027;-74
2023/05/20 06:15:52;;;;;;;18.38;8.02;;;;;;;13.62;100.00;101758.81;5130128;27;20031;-75
2023/05/20 06:18:21;;;;;;;19.27;7.57;;;;;;;13.62;100.00;101757.03;5130075;27;20042;-74
2023/05/20 06:20:59;;;;;;;19.98;7.00;;;;;;;13.69;100.00;101754.69;5102133;27;20023;-74
2023/05/20 06:23:27;;;;;;;18.10;7.22;;;;;;;13.72;100.00;101751.75;5126618;27;20040;-74
2023/05/20 06:25:59;;;;;;;21.48;7.85;;;;;;;13.74;100.00;101754.28;5093792;28;20084;-74
2023/05/20 06:28:30;;;;;;;19.98;7.55;;;;;;;13.75;100.00;101764.78;5100859;27;20027;-73
2023/05/20 06:31:00;;;;;;;15.25;6.93;;;;;;;13.76;100.00;101769.13;5105965;28;20397;-73
2023/05/20 06:33:33;;;;;;;19.75;7.72;;;;;;;13.76;100.00;101757.66;5128135;27;20038;-75
2023/05/20 06:36:06;;;;;;;21.02;6.82;;;;;;;13.71;100.00;101763.34;5121366;27;20186;-73
2023/05/20 06:38:37;;;;;;;16.50;7.38;;;;;;;13.72;100.00;101762.41;5139405;27;20441;-72
2023/05/20 06:41:07;;;;;;;27.50;7.88;;;;;;;13.77;100.00;101752.22;5128816;27;20118;-72
2023/05/20 06:43:37;;;;;;;18.30;7.68;;;;;;;13.83;100.00;101758.81;5112720;27;20035;-74
2023/05/20 06:46:10;;;;;;;17.67;7.70;;;;;;;13.86;100.00;101763.00;5090925;27;20131;-74
2023/05/20 06:48:54;;;;;;;21.17;7.65;;;;;;;13.94;100.00;101762.31;5110684;27;20043;-75
2023/05/20 06:51:23;;;;;;;21.33;8.02;;;;;;;13.97;100.00;101759.41;5125357;27;20035;-74
2023/05/20 06:53:51;;;;;;;21.10;7.40;;;;;;;14.00;100.00;101752.00;5109059;27;20392;-73
2023/05/20 06:56:20;;;;;;;18.40;7.75;;;;;;;14.09;100.00;101755.69;5108782;27;20388;-73
2023/05/20 06:58:48;;;;;;;23.10;6.93;;;;;;;14.13;100.00;101751.78;5102314;27;20024;-74
2023/05/20 07:01:17;;;;;;;19.25;7.20;;;;;;;14.21;100.00;101760.88;5115728;27;21550;-74
2023/05/20 07:03:46;;;;;;;19.98;7.60;;;;;;;14.22;100.00;101754.59;5106553;28;20035;-72
2023/05/20 07:06:14;;;;;;;24.80;8.10;;;;;;;14.29;100.00;101757.53;5115351;27;20112;-73
2023/05/20 07:08:42;;;;;;;16.50;8.60;;;;;;;14.28;100.00;101756.72;5117745;27;20773;-73
2023/05/20 07:11:10;;;;;;;17.67;7.80;;;;;;;14.32;100.00;101750.13;5121578;27;20042;-73
2023/05/20 07:13:38;;;;;;;18.10;7.15;;;;;;;14.30;100.00;101754.72;5095214;27;20192;-74
2023/05/20 07:16:06;;;;;;;21.27;7.47;;;;;;;14.35;100.00;101757.00;5111915;27;20092;-74
2023/05/20 07:18:37;;;;;;;22.10;8.25;;;;;;;14.35;100.00;101760.50;5103453;28;20036;-72
2023/05/20 07:21:07;;;;;;;19.95;7.93;;;;;;;14.44;100.00;101752.69;5095766;27;20039;-73
2023/05/20 07:23:59;;;;;;;15.52;7.10;;;;;;;14.46;100.00;101751.53;5111536;27;20507;-73
2023/05/20 07:26:27;;;;;;;22.35;7.68;;;;;;;14.49;100.00;101748.59;5125137;27;20023;-73
2023/05/20 07:28:55;;;;;;;18.88;7.55;;;;;;;14.58;100.00;101754.09;5100264;27;20544;-74
2023/05/20 07:31:23;;;;;;;20.33;8.05;;;;;;;14.58;100.00;101752.28;5107702;27;20091;-74
2023/05/20 07:33:53;;;;;;;22.02;8.43;;;;;;;14.62;100.00;101759.00;5113809;27;20392;-74
2023/05/20 07:36:23;;;;;;;19.33;8.07;;;;;;;14.64;100.00;101759.69;5126352;27;20031;-74
2023/05/20 07:38:55;;;;;;;21.73;8.63;;;;;;;14.69;100.00;101767.28;5091844;27;20565;-74
2023/05/20 07:41:25;;;;;;;21.42;8.18;;;;;;;14.65;100.00;101763.22;5123925;27;20038;-73
2023/05/20 07:43:54;;;;;;;17.27;7.88;;;;;;;14.65;100.00;101765.88;5108680;27;20040;-72
2023/05/20 07:46:22;;;;;;;26.10;8.20;;;;;;;14.69;100.00;101753.97;5104663;27;20038;-72
2023/05/20 07:48:49;;;;;;;22.95;8.30;;;;;;;14.77;100.00;101761.25;5096372;27;20455;-72
2023/05/20 07:51:17;;;;;;;21.60;8.73;;;;;;;14.76;100.00;101763.06;5123185;27;20034;-72
2023/05/20 07:53:46;;;;;;;19.27;7.90;;;;;;;14.81;100.00;101765.34;5109571;27;20035;-73
2023/05/20 07:56:14;;;;;;;23.15;8.07;;;;;;;14.79;100.00;101764.66;5118076;27;20103;-74
2023/05/20 07:58:51;;;;;;;25.75;8.27;;;;;;;14.85;100.00;101771.22;5124249;27;20529;-74
2023/05/20 08:01:22;;;;;;;23.17;8.43;;;;;;;14.85;100.00;101772.06;5120809;27;20035;-74
2023/05/20 08:03:52;;;;;;;20.10;8.05;;;;;;;14.84;100.00;101775.69;5087123;27;20062;-74
2023/05/20 08:06:23;;;;;;;26.90;8.35;;;;;;;14.76;100.00;101781.69;5107205;27;20043;-74
2023/05/20 08:08:53;;;;;;;23.98;8.68;;;;;;;14.70;100.00;101778.75;5122810;27;20023;-74
2023/05/20 08:11:26;;;;;;;27.02;8.85;;;;;;;14.68;100.00;101781.56;5107032;27;20028;-74
2023/05/20 08:13:55;;;;;;;19.17;7.88;;;;;;;14.69;100.00;101780.56;5124019;27;20155;-73
2023/05/20 08:16:24;;;;;;;24.67;8.73;;;;;;;14.66;100.00;101783.50;5112207;27;20035;-72
2023/05/20 08:18:52;;;;;;;20.42;7.55;;;;;;;14.71;100.00;101780.44;5106662;27;20102;-72
2023/05/20 08:21:21;;;;;;;22.02;8.38;;;;;;;14.72;100.00;101779.44;5125039;27;20528;-72
2023/05/20 08:23:49;;;;;;;22.10;8.05;;;;;;;14.78;100.00;101783.38;5122790;27;20043;-74
2023/05/20 08:26:17;;;;;;;28.58;8.52;;;;;;;14.81;100.00;101775.16;5127474;27;20031;-74
2023/05/20 08:28:45;;;;;;;18.00;8.05;;;;;;;14.83;100.00;101768.69;5128261;27;20162;-74
2023/05/20 08:31:13;;;;;;;21.23;7.68;;;;;;;14.87;100.00;101767.44;5138694;27;20084;-74
2023/05/20 08:33:42;;;;;;;20.77;8.60;;;;;;;14.93;100.00;101768.72;5118807;27;20434;-72
2023/05/20 08:36:09;;;;;;;24.50;8.90;;;;;;;14.94;100.00;101765.06;5087652;28;20393;-73
2023/05/20 08:38:37;;;;;;;18.65;8.18;;;;;;;14.91;100.00;101770.66;5121930;27;20032;-73
2023/05/20 08:41:06;;;;;;;22.95;8.13;;;;;;;14.85;100.00;101772.06;5103242;28;20036;-73
2023/05/20 08:43:36;;;;;;;23.02;7.95;;;;;;;14.91;100.00;101769.84;5110258;28;20063;-74
2023/05/20 08:46:06;;;;;;;20.05;8.45;;;;;;;14.92;100.00;101764.38;5105498;28;20031;-74
2023/05/20 08:48:37;;;;;;;23.67;8.02;;;;;;;14.94;100.00;101765.06;5118188;28;20103;-73
2023/05/20 08:51:10;;;;;;;24.15;7.88;;;;;;;14.92;100.00;101760.88;5110068;28;20533;-73
2023/05/20 08:53:38;;;;;;;27.48;8.82;;;;;;;14.93;100.00;101763.38;5111566;28;20530;-73
2023/05/20 08:56:08;;;;;;;26.70;8.45;;;;;;;14.89;100.00;101764.66;5122863;28;20066;-73
2023/05/20 08:58:36;;;;;;;24.70;8.52;;;;;;;14.85;100.00;101758.75;5098818;28;20039;-74
2023/05/20 09:01:07;;;;;;;25.15;8.80;;;;;;;14.87;100.00;101756.78;5121359;28;20131;-75
2023/05/20 09:03:34;;;;;;;20.77;8.63;;;;;;;14.93;100.00;101757.22;5093602;28;20035;-75
2023/05/20 09:06:09;;;;;;;22.20;8.80;;;;;;;14.93;100.00;101754.53;5125661;28;20535;-75
2023/05/20 09:08:39;;;;;;;25.25;10.10;;;;;;;14.94;100.00;101746.41;5118326;28;20035;-74
2023/05/20 09:11:09;;;;;;;22.38;9.25;;;;;;;15.00;100.00;101745.84;5108898;28;20062;-75
2023/05/20 09:13:37;;;;;;;24.33;8.05;;;;;;;15.05;100.00;101728.63;5100656;28;20100;-73
2023/05/20 09:16:05;;;;;;;27.95;9.45;;;;;;;15.14;100.00;101719.78;5101695;28;20034;-73
2023/05/20 09:18:32;;;;;;;25.15;10.13;;;;;;;15.20;100.00;101731.66;5085029;28;20088;-74
2023/05/20 09:21:07;;;;;;;24.42;9.32;;;;;;;15.27;100.00;101723.97;5097693;28;20511;-74
2023/05/20 09:23:38;;;;;;;22.48;8.25;;;;;;;15.29;100.00;101727.31;5106025;28;20094;-74
2023/05/20 09:26:08;;;;;;;24.42;9.45;;;;;;;15.33;100.00;101721.56;5097741;28;20132;-74
2023/05/20 09:28:39;;;;;;;19.27;8.60;;;;;;;15.43;100.00;101723.34;5108465;28;20033;-74
2023/05/20 09:31:09;;;;;;;25.02;9.25;;;;;;;15.55;100.00;101724.84;5083079;28;20064;-71
2023/05/20 09:33:39;;;;;;;28.10;10.52;;;;;;;15.60;100.00;101721.75;5116010;28;20023;-80
2023/05/20 09:36:10;;;;;;;21.23;7.63;;;;;;;15.58;100.00;101715.72;5115004;28;20452;-79
2023/05/20 09:38:40;;;;;;;24.05;9.68;;;;;;;15.60;100.00;101713.75;5102181;28;20035;-79
2023/05/20 09:41:16;;;;;;;25.15;9.50;;;;;;;15.63;100.00;101713.47;5125411;27;20035;-81
2023/05/20 09:43:47;;;;;;;22.73;9.43;;;;;;;15.68;100.00;101708.53;5122559;27;20031;-79
2023/05/20 09:46:19;;;;;;;23.15;8.25;;;;;;;15.69;100.00;101712.88;5124845;27;20134;-79
2023/05/20 09:48:49;;;;;;;26.13;8.40;;;;;;;15.72;100.00;101711.72;5109594;28;20084;-79
2023/05/20 09:51:23;;;;;;;28.42;9.07;;;;;;;15.79;100.00;101718.16;5103416;28;20516;-79
2023/05/20 09:53:53;;;;;;;20.67;9.10;;;;;;;15.85;100.00;101708.72;5105826;27;20030;-76
2023/05/20 09:56:25;;;;;;;25.25;9.15;;;;;;;15.94;100.00;101712.34;5139790;27;20035;-79
2023/05/20 09:58:57;;;;;;;21.73;8.60;;;;;;;16.02;100.00;101715.16;5106043;27;20303;-78
2023/05/20 10:01:25;;;;;;;26.27;8.63;;;;;;;16.04;100.00;101710.47;5125671;27;20027;-79
2023/05/20 10:03:53;;;;;;;23.75;7.88;;;;;;;16.02;100.00;101720.47;5103511;27;20041;-80
2023/05/20 10:06:56;;;;;;;24.88;7.25;;;;;;;15.99;100.00;101716.25;5123462;27;20028;-82
2023/05/20 10:09:40;;;;;;;26.92;7.80;;;;;;;15.96;100.00;101710.34;5124375;27;20039;-79
2023/05/20 10:12:33;;;;;;;24.00;7.78;;;;;;;15.96;100.00;101703.19;5110408;27;20039;-78
2023/05/20 10:15:24;;;;;;;22.27;7.60;;;;;;;16.06;100.00;101697.84;5120817;27;20035;-78
2023/05/20 10:18:10;;;;;;;24.90;7.32;;;;;;;16.16;100.00;101704.94;5105454;27;20170;-77
2023/05/20 10:20:48;;;;;;;41.80;8.90;;;;;;;16.19;100.00;101699.31;5125922;27;20035;-79
2023/05/20 10:23:28;;;;;;;21.20;6.75;;;;;;;16.21;100.00;101694.66;5122791;27;20027;-78
2023/05/20 10:25:58;;;;;;;30.38;7.30;;;;;;;16.28;100.00;101694.88;5115230;27;20110;-78
2023/05/20 10:28:34;;;;;;;22.90;7.35;;;;;;;16.33;100.00;101690.78;5099673;27;20031;-78
2023/05/20 10:31:24;;;;;;;21.90;7.55;;;;;;;16.40;100.00;101682.16;5124686;27;20032;-78
2023/05/20 10:33:58;;;;;;;20.67;7.93;;;;;;;16.44;100.00;101680.84;5120961;27;20042;-79
2023/05/20 10:36:30;;;;;;;26.35;7.93;;;;;;;16.45;100.00;101680.72;5112810;27;20603;-78
2023/05/20 10:39:01;;;;;;;29.10;7.03;;;;;;;16.42;100.00;101681.00;5118013;27;20031;-79
2023/05/20 10:41:30;;;;;;;20.80;6.75;;;;;;;16.36;100.00;101686.97;5125624;27;20106;-77
2023/05/20 10:44:02;;;;;;;22.13;7.60;;;;;;;16.32;100.00;101685.59;5108128;27;20458;-78
2023/05/20 10:46:34;;;;;;;26.42;7.38;;;;;;;16.28;100.00;101687.72;5072318;27;20033;-78
2023/05/20 10:49:04;;;;;;;20.80;6.25;;;;;;;16.27;100.00;101688.72;5104899;27;20567;-78
2023/05/20 10:51:35;;;;;;;25.90;7.15;;;;;;;16.31;100.00;101687.41;5094133;27;20041;-78
2023/05/20 10:54:03;;;;;;;25.45;6.07;;;;;;;16.32;100.00;101693.59;5111619;27;20032;-78
2023/05/20 10:56:31;;;;;;;21.10;6.05;;;;;;;16.39;100.00;101681.31;5113959;27;20031;-77
2023/05/20 10:59:01;;;;;;;25.85;6.75;;;;;;;16.42;100.00;101685.53;5112054;27;20038;-76
2023/05/20 11:01:29;;;;;;;28.02;7.25;;;;;;;16.47;100.00;101686.75;5114818;27;20625;-79
2023/05/20 11:03:59;;;;;;;20.95;7.68;;;;;;;16.45;100.00;101680.72;5081539;27;20055;-79
2023/05/20 11:06:27;;;;;;;18.15;6.07;;;;;;;16.51;100.00;101675.75;5086895;27;20520;-78
2023/05/20 11:08:55;;;;;;;21.02;6.90;;;;;;;16.54;100.00;101678.97;5095379;27;20062;-78
2023/05/20 11:11:23;;;;;;;27.85;7.10;;;;;;;16.59;100.00;101684.69;5112403;27;20047;-78
2023/05/20 11:13:51;;;;;;;24.27;7.15;;;;;;;16.60;100.00;101681.03;5085996;27;20594;-78
2023/05/20 11:16:21;;;;;;;32.63;6.88;;;;;;;16.63;100.00;101674.53;5114084;27;20039;-78
2023/05/20 11:18:50;;;;;;;25.67;8.40;;;;;;;16.66;100.00;101676.06;5111571;27;20220;-78
2023/05/20 11:21:19;;;;;;;19.95;6.95;;;;;;;16.72;100.00;101675.44;5114180;27;20123;-77
2023/05/20 11:23:50;;;;;;;20.23;6.32;;;;;;;16.77;100.00;101670.44;5102337;27;20451;-77
2023/05/20 11:26:18;;;;;;;19.55;6.68;;;;;;;16.81;100.00;101674.50;5099153;27;20597;-77
2023/05/20 11:28:46;;;;;;;18.73;5.85;;;;;;;16.86;100.00;101680.22;5097049;27;20031;-79